Ana Sayfa
METAR-TAF:

METAR-TAF

Havaalanları :

Phrae, Tayland

Enlem: 18-10N, Boylam: 100-10E, yükseklik: 161 m

Güncel hava durumu gözlemi

Rapor saat 05:00 UTC de 27 dakika önce yapıldı.
Rüzgar değişken yönden 3 kt
Sıcaklık 29°C
Nem 43%
Basınç 1017 hPa
Görüş mesafesi: 9000 m
3500 ft yükseklikte az bulutlu

METAR: VTCP 120500Z VRB03KT 9000 FEW035 29/15 Q1017 NOSIG

Saat: 12:27 (05:27 UTC)

Tahmin

Rapor saat 23:00 UTC de 6 saat ve 27 dakika önce yapıldı.
Ayın 12'si saat 00 UTC'den ayın 12'si saat 24 UTC'ye kadar geçerli Tahmin
Rüzgar kuzeydoğudan 5 kt
Görüş mesafesi: 2000 m
Pus
Dönüşüyor
ayın 12'si saat 01 UTC'den ayın 12'si saat 03 UTC'ye kadar
Görüş mesafesi 10 km veya daha fazla
3500 ft yükseklikte az bulutlu

TAF: VTCP 112300Z 1200/1224 04005KT 2000 BR NSC BECMG 1201/1203 9999 NSW FEW035

4.000'den fazla havaalanı için hava durumu gözlemleri ve tahminleri (METAR ve TAF raporları).

Kullanılabilir istasyonlar harita üzerinde sarı ve kırmızı noktalarla gösterilir.

İstasyonun adını görmek için fareyi noktanın üzerinde gezdirin.

Sonrasında hava gözlem ve tahminlerini görmek için tıklayın.

Haritayı değiştirmek için: yaklaştırmak için siyah artı işaretli yeşil düğmeye ve uzaklaştırmak için de eksi işaretli düğmeye hızla tıklayın; bitişik haritalar için yeşil okları kullanın.


METAR-TAF: